Time;durP1;ratioP1;P1;durP2;ratioP2;P2;SDS_P1;SDS_P2;PMS_P1;PMS_P2;Temp;Humidity;BMP_temperature;BMP_pressure;BME280_temperature;BME280_humidity;BME280_pressure;Samples;Min_cycle;Max_cycle;Signal;HPM_P1;HPM_P2
2021/03/19 00:02:45;;;;;;;10.27;6.77;;;;;;;-2.67;84.28;99399.28;5016607;28;20304;-95
2021/03/19 00:05:35;;;;;;;10.47;6.53;;;;;;;-2.87;84.57;99383.69;5017282;28;20234;-93
2021/03/19 00:08:24;;;;;;;9.63;6.27;;;;;;;-2.82;84.53;99403.28;5016785;28;20517;-89
2021/03/19 00:11:13;;;;;;;14.27;8.40;;;;;;;-3.05;85.03;99353.91;5017161;28;20234;-93
2021/03/19 00:13:59;;;;;;;15.37;9.83;;;;;;;-2.87;85.02;99399.44;5016175;28;20222;-91
2021/03/19 00:16:54;;;;;;;13.20;7.60;;;;;;;-2.96;85.62;99379.28;5006272;28;20312;-91
2021/03/19 00:19:50;;;;;;;12.13;7.93;;;;;;;-2.93;85.55;99395.56;5020467;28;20254;-94
2021/03/19 00:22:34;;;;;;;13.53;7.93;;;;;;;-2.98;85.32;99379.41;5020556;28;20230;-93
2021/03/19 00:25:13;;;;;;;14.37;8.80;;;;;;;-3.04;85.68;99360.81;5021426;28;20242;-95
2021/03/19 00:27:58;;;;;;;13.30;8.33;;;;;;;-3.03;85.24;99365.09;5019455;28;20260;-91
2021/03/19 00:30:47;;;;;;;12.13;7.30;;;;;;;-3.03;85.74;99376.38;5020209;28;20230;-93
2021/03/19 00:33:37;;;;;;;10.33;7.70;;;;;;;-3.33;85.52;99348.56;5019754;28;20223;-93
2021/03/19 00:36:34;;;;;;;11.47;6.93;;;;;;;-3.36;85.99;99356.69;5020167;28;20313;-94
2021/03/19 00:39:18;;;;;;;11.53;7.50;;;;;;;-3.47;85.42;99356.84;5019570;28;20281;-94
2021/03/19 00:42:09;;;;;;;10.93;7.13;;;;;;;-3.50;86.12;99378.06;5020098;28;20231;-94
2021/03/19 00:45:01;;;;;;;12.40;7.27;;;;;;;-3.67;85.82;99356.00;5018508;28;20246;-94
2021/03/19 00:47:49;;;;;;;10.57;7.33;;;;;;;-3.73;85.75;99360.94;5018470;28;20223;-91
2021/03/19 00:50:39;;;;;;;10.00;6.77;;;;;;;-3.58;86.37;99377.91;4999546;28;20234;-91
2021/03/19 00:53:19;;;;;;;10.50;7.00;;;;;;;-3.67;87.07;99363.84;4999678;28;20238;-90
2021/03/19 00:56:05;;;;;;;9.07;6.13;;;;;;;-3.64;86.25;99363.56;4999503;28;20278;-91
2021/03/19 00:58:47;;;;;;;10.23;6.33;;;;;;;-3.64;87.10;99368.00;5003798;28;20223;-92
2021/03/19 01:01:29;;;;;;;9.03;6.50;;;;;;;-3.75;86.74;99345.38;5017713;28;20222;-91
2021/03/19 01:04:14;;;;;;;8.17;6.07;;;;;;;-3.79;86.93;99344.00;5016785;28;20226;-89
2021/03/19 01:06:56;;;;;;;8.93;6.30;;;;;;;-3.83;86.66;99340.00;5017438;28;20237;-94
2021/03/19 01:09:43;;;;;;;9.77;6.50;;;;;;;-3.72;87.08;99360.81;5018274;28;20265;-91
2021/03/19 01:12:29;;;;;;;8.80;6.20;;;;;;;-3.82;87.19;99339.00;5017695;28;20273;-92
2021/03/19 01:15:17;;;;;;;8.27;6.30;;;;;;;-3.89;87.43;99339.69;5017098;28;20653;-88
2021/03/19 01:18:03;;;;;;;9.07;6.10;;;;;;;-3.74;87.45;99367.97;5018125;28;20317;-91
2021/03/19 01:20:53;;;;;;;9.30;6.70;;;;;;;-3.87;86.62;99353.50;4997337;28;20233;-92
2021/03/19 01:23:34;;;;;;;9.60;6.53;;;;;;;-4.02;87.06;99356.50;5013511;28;20651;-93
2021/03/19 01:26:22;;;;;;;9.37;6.53;;;;;;;-4.05;87.73;99341.03;5016391;28;20273;-93
2021/03/19 01:29:10;;;;;;;9.13;7.00;;;;;;;-4.05;87.54;99345.44;5016750;28;20727;-89
2021/03/19 01:31:56;;;;;;;9.30;7.03;;;;;;;-3.93;87.56;99360.09;5001947;28;20314;-92
2021/03/19 01:34:53;;;;;;;10.73;7.20;;;;;;;-4.02;88.16;99350.44;5016330;28;20245;-95
2021/03/19 01:37:43;;;;;;;11.30;7.00;;;;;;;-3.93;88.13;99364.50;5017906;28;20649;-88
2021/03/19 01:40:33;;;;;;;11.63;7.80;;;;;;;-3.85;88.46;99355.00;5017218;28;20223;-92
2021/03/19 01:43:47;;;;;;;12.23;8.00;;;;;;;-3.86;88.39;99366.44;5016780;28;20273;-92
2021/03/19 01:47:11;;;;;;;11.33;7.93;;;;;;;-3.95;88.21;99354.16;4996882;28;20717;-88
2021/03/19 01:50:28;;;;;;;13.60;8.27;;;;;;;-4.01;88.25;99362.53;5005584;28;20296;-94
2021/03/19 01:53:44;;;;;;;12.87;8.57;;;;;;;-4.02;88.80;99360.91;5016054;28;20234;-93
2021/03/19 01:57:13;;;;;;;14.23;8.37;;;;;;;-3.96;88.94;99351.66;4997609;28;20543;-92
2021/03/19 02:00:31;;;;;;;12.73;8.47;;;;;;;-3.96;88.70;99355.09;5005745;28;20513;-95
2021/03/19 02:03:48;;;;;;;15.20;9.40;;;;;;;-4.00;88.79;99358.97;5017032;28;20230;-95
2021/03/19 02:07:07;;;;;;;12.03;8.10;;;;;;;-4.04;88.62;99355.78;4996999;28;20242;-88
2021/03/19 02:10:32;;;;;;;13.23;8.73;;;;;;;-4.06;89.05;99356.91;5010568;28;20224;-95
2021/03/19 02:13:54;;;;;;;12.10;8.23;;;;;;;-3.96;88.78;99349.03;4998878;28;20250;-90
2021/03/19 02:17:16;;;;;;;12.50;8.17;;;;;;;-3.94;89.01;99355.81;4999034;28;20228;-95
2021/03/19 02:20:37;;;;;;;10.87;7.90;;;;;;;-3.98;88.60;99343.97;5005529;28;20222;-95
2021/03/19 02:23:57;;;;;;;10.97;7.40;;;;;;;-3.89;89.20;99348.38;5018424;28;20272;-95
2021/03/19 02:27:17;;;;;;;11.60;7.57;;;;;;;-3.83;89.72;99349.66;5017509;28;20302;-90
2021/03/19 02:30:40;;;;;;;11.57;7.43;;;;;;;-3.81;89.18;99352.94;5017137;28;20642;-93
2021/03/19 02:33:29;;;;;;;11.73;7.60;;;;;;;-3.93;88.42;99344.38;5018527;28;20282;-93
2021/03/19 02:36:25;;;;;;;11.43;7.43;;;;;;;-3.86;88.72;99349.88;5016798;28;20225;-93
2021/03/19 02:39:16;;;;;;;12.87;7.67;;;;;;;-4.05;88.01;99330.56;5016824;28;20227;-94
2021/03/19 02:42:12;;;;;;;13.17;8.10;;;;;;;-3.91;87.91;99354.69;4998642;28;20514;-96
2021/03/19 02:45:22;;;;;;;10.33;7.53;;;;;;;-3.99;88.04;99347.53;5001918;28;20225;-91
2021/03/19 02:48:04;;;;;;;10.83;7.57;;;;;;;-4.10;88.19;99324.91;5003519;28;20238;-94
2021/03/19 02:50:49;;;;;;;11.17;7.73;;;;;;;-4.06;88.24;99335.97;5016920;28;20226;-94
2021/03/19 02:53:38;;;;;;;10.30;7.10;;;;;;;-4.00;88.53;99348.50;5016543;28;20231;-94
2021/03/19 02:56:23;;;;;;;12.07;7.20;;;;;;;-4.14;88.42;99327.94;5016428;28;20250;-94
2021/03/19 02:59:11;;;;;;;9.97;6.60;;;;;;;-4.12;88.80;99332.09;5016580;28;20234;-93
2021/03/19 03:01:55;;;;;;;9.97;7.20;;;;;;;-4.02;88.87;99353.03;5017456;28;20567;-89
2021/03/19 03:04:49;;;;;;;10.47;6.40;;;;;;;-4.05;88.88;99346.28;5016312;28;20230;-95
2021/03/19 03:07:39;;;;;;;9.17;6.50;;;;;;;-4.14;88.65;99334.00;4997754;28;20654;-92
2021/03/19 03:10:33;;;;;;;9.87;6.63;;;;;;;-4.14;88.41;99339.22;5000093;28;20226;-92
2021/03/19 03:13:23;;;;;;;10.00;6.83;;;;;;;-4.12;88.68;99331.25;5016059;28;20535;-96
2021/03/19 03:16:15;;;;;;;9.10;6.53;;;;;;;-4.06;89.01;99341.19;5002593;28;20219;-94
2021/03/19 03:19:03;;;;;;;10.77;7.00;;;;;;;-3.97;89.31;99352.66;5016266;28;20234;-87
2021/03/19 03:22:10;;;;;;;10.20;6.70;;;;;;;-4.01;89.24;99357.28;5016849;28;20226;-93
2021/03/19 03:25:00;;;;;;;8.77;6.60;;;;;;;-4.03;88.73;99354.84;5015387;28;20230;-90
2021/03/19 03:27:51;;;;;;;9.93;6.53;;;;;;;-4.02;89.14;99346.03;5015420;28;20240;-96
2021/03/19 03:30:51;;;;;;;9.60;6.80;;;;;;;-4.13;88.65;99333.03;5015192;28;20237;-94
2021/03/19 03:33:45;;;;;;;9.53;6.73;;;;;;;-4.10;88.43;99348.47;5016601;28;20230;-94
2021/03/19 03:36:36;;;;;;;8.40;5.97;;;;;;;-4.54;89.01;99276.50;5016399;28;20227;-90
2021/03/19 03:39:25;;;;;;;8.87;6.50;;;;;;;-4.31;88.38;99311.09;5017197;28;20322;-96
2021/03/19 03:42:19;;;;;;;10.63;7.10;;;;;;;-4.30;87.93;99311.94;5015078;28;20223;-88
2021/03/19 03:45:18;;;;;;;9.43;7.27;;;;;;;-4.12;88.76;99350.41;5015879;28;20575;-90
2021/03/19 03:48:12;;;;;;;9.63;6.50;;;;;;;-4.13;88.88;99355.75;5016407;28;20230;-90
2021/03/19 03:51:01;;;;;;;9.50;6.50;;;;;;;-4.18;88.94;99356.16;5019892;28;20312;-91
2021/03/19 03:53:45;;;;;;;8.33;6.60;;;;;;;-4.17;89.01;99355.19;5020249;28;20529;-95
2021/03/19 03:56:39;;;;;;;8.40;6.70;;;;;;;-4.26;88.77;99352.56;5019807;28;20625;-94
2021/03/19 03:59:25;;;;;;;9.73;6.80;;;;;;;-4.39;88.86;99344.13;5019818;28;20234;-92
2021/03/19 04:02:28;;;;;;;10.37;7.17;;;;;;;-4.27;89.26;99356.94;5019010;28;20254;-93
2021/03/19 04:05:27;;;;;;;7.80;6.07;;;;;;;-4.39;89.08;99333.66;5018402;28;20455;-95
2021/03/19 04:08:19;;;;;;;9.13;6.83;;;;;;;-4.24;89.19;99359.28;5019109;28;20277;-89
2021/03/19 04:11:09;;;;;;;9.90;7.03;;;;;;;-4.25;89.58;99355.06;5004621;28;20276;-93
2021/03/19 04:13:56;;;;;;;9.97;6.93;;;;;;;-4.31;89.50;99346.88;5019562;28;20230;-90
2021/03/19 04:16:46;;;;;;;8.77;6.87;;;;;;;-4.23;89.60;99345.25;5020300;28;20618;-93
2021/03/19 04:19:35;;;;;;;10.03;7.43;;;;;;;-4.57;89.33;99304.66;5019765;28;20282;-93
2021/03/19 04:22:28;;;;;;;10.43;7.07;;;;;;;-4.41;89.83;99332.94;5018999;28;20254;-96
2021/03/19 04:25:21;;;;;;;10.10;7.43;;;;;;;-4.26;90.12;99352.56;5020350;28;20223;-91
2021/03/19 04:28:15;;;;;;;10.60;7.57;;;;;;;-4.50;89.41;99316.25;5018723;28;20680;-94
2021/03/19 04:31:03;;;;;;;11.87;7.80;;;;;;;-4.26;89.53;99357.78;5019133;28;20226;-94
2021/03/19 04:33:55;;;;;;;9.67;7.67;;;;;;;-4.35;89.30;99353.34;5019287;28;20269;-90
2021/03/19 04:36:46;;;;;;;9.87;7.13;;;;;;;-4.57;89.15;99318.56;5019844;28;20257;-96
2021/03/19 04:39:28;;;;;;;10.53;7.53;;;;;;;-4.68;89.06;99304.78;5018869;28;20767;-91
2021/03/19 04:42:05;;;;;;;9.37;7.13;;;;;;;-4.31;89.67;99360.81;5019127;28;20230;-91
2021/03/19 04:44:53;;;;;;;12.17;7.77;;;;;;;-4.35;90.04;99354.19;5019603;28;20238;-95
2021/03/19 04:47:38;;;;;;;9.60;7.20;;;;;;;-4.41;90.10;99333.78;5018728;28;20229;-95
2021/03/19 04:50:41;;;;;;;10.80;7.23;;;;;;;-4.22;90.76;99352.16;5018361;28;20253;-88
2021/03/19 04:53:31;;;;;;;12.30;7.77;;;;;;;-4.24;89.90;99361.91;5019178;28;20229;-90
2021/03/19 04:56:19;;;;;;;11.57;7.90;;;;;;;-4.30;89.78;99349.38;5019277;28;20307;-93
2021/03/19 04:59:09;;;;;;;10.67;7.30;;;;;;;-4.22;89.60;99348.72;5018314;28;20234;-88
2021/03/19 05:02:01;;;;;;;11.53;8.57;;;;;;;-4.06;90.05;99359.50;5017934;28;20222;-92
2021/03/19 05:04:48;;;;;;;10.00;7.23;;;;;;;-4.10;89.95;99350.25;4999010;28;20314;-95
2021/03/19 05:07:41;;;;;;;11.10;7.57;;;;;;;-4.02;90.07;99347.81;5002252;28;20270;-87
2021/03/19 05:10:34;;;;;;;10.80;7.47;;;;;;;-3.90;89.92;99362.44;5016904;28;20325;-93
2021/03/19 05:13:24;;;;;;;11.67;7.57;;;;;;;-3.97;89.72;99352.66;5003150;28;20297;-89
2021/03/19 05:16:08;;;;;;;10.27;7.47;;;;;;;-3.94;89.57;99344.50;5017471;28;20258;-90
2021/03/19 05:18:49;;;;;;;11.50;7.43;;;;;;;-3.86;89.38;99350.72;5017986;28;20258;-94
2021/03/19 05:21:43;;;;;;;9.63;7.53;;;;;;;-3.85;88.96;99339.28;5017163;28;20293;-93
2021/03/19 05:24:36;;;;;;;11.33;7.97;;;;;;;-3.73;88.84;99342.59;5017441;28;20629;-90
2021/03/19 05:27:28;;;;;;;11.47;8.00;;;;;;;-3.45;88.13;99359.34;5002120;28;20276;-94
2021/03/19 05:30:18;;;;;;;13.63;7.97;;;;;;;-3.46;87.53;99334.94;5016826;28;20227;-85
2021/03/19 05:33:09;;;;;;;11.53;7.77;;;;;;;-3.12;87.00;99359.72;5017012;28;20230;-90
2021/03/19 05:35:59;;;;;;;10.43;7.90;;;;;;;-3.21;86.07;99316.00;5009712;28;20319;-88
2021/03/19 05:38:42;;;;;;;9.53;7.63;;;;;;;-3.09;85.37;99324.56;4998928;28;20231;-90
2021/03/19 05:41:27;;;;;;;9.90;7.17;;;;;;;-2.70;84.89;99361.97;4999494;28;20227;-94
2021/03/19 05:44:24;;;;;;;10.43;7.30;;;;;;;-2.43;84.15;99372.56;4998387;28;20235;-86
2021/03/19 05:47:14;;;;;;;10.70;7.53;;;;;;;-2.23;84.27;99370.66;4998523;28;20235;-87
2021/03/19 05:50:01;;;;;;;12.27;8.73;;;;;;;-1.92;82.79;99368.59;5016137;28;20237;-91
2021/03/19 05:52:51;;;;;;;10.77;7.97;;;;;;;-1.61;82.20;99369.09;5018710;28;20318;-95
2021/03/19 05:55:43;;;;;;;8.90;7.53;;;;;;;-1.28;80.67;99371.06;5019543;28;20226;-95
2021/03/19 05:58:34;;;;;;;9.13;7.40;;;;;;;-1.14;79.66;99356.56;5016819;28;20281;-89
2021/03/19 06:01:18;;;;;;;10.67;7.13;;;;;;;-0.83;79.34;99364.84;5019416;28;20227;-92
2021/03/19 06:04:22;;;;;;;9.43;7.13;;;;;;;-0.49;78.42;99381.53;5021555;28;20242;-92
2021/03/19 06:07:05;;;;;;;10.10;6.97;;;;;;;-0.35;78.03;99378.31;5021644;28;20231;-89
2021/03/19 06:09:56;;;;;;;10.93;7.27;;;;;;;-0.40;77.07;99348.19;5027221;28;20716;-85
2021/03/19 06:13:07;;;;;;;10.10;7.07;;;;;;;0.01;78.14;99386.88;5022929;28;20333;-95
2021/03/19 06:15:57;;;;;;;9.37;6.90;;;;;;;0.05;77.83;99390.84;5007406;28;20254;-90
2021/03/19 06:19:00;;;;;;;8.87;7.27;;;;;;;0.11;77.34;99392.84;5010574;28;20553;-82
2021/03/19 06:22:27;;;;;;;11.23;7.67;;;;;;;0.35;77.98;99397.38;5013774;28;20215;-79
2021/03/19 06:26:00;;;;;;;12.83;8.07;;;;;;;0.64;76.91;99400.44;5034381;23;20245;-78
2021/03/19 06:29:43;;;;;;;11.00;8.10;;;;;;;0.94;77.94;99396.34;5039113;23;20237;-79
2021/03/19 06:37:19;;;;;;;16.83;10.33;;;;;;;1.90;72.38;99412.25;5026018;22;20207;-80
2021/03/19 06:41:32;;;;;;;10.70;8.57;;;;;;;2.35;69.61;99388.63;5116654;23;20226;-79
2021/03/19 06:50:06;;;;;;;10.17;7.07;;;;;;;2.89;67.20;99393.94;4958045;29;20220;-78
2021/03/19 06:54:25;;;;;;;6.50;5.83;;;;;;;2.98;66.98;99391.06;5008300;23;20294;-79
2021/03/19 07:05:39;;;;;;;9.87;7.47;;;;;;;2.89;70.05;99401.88;4977136;29;20265;-79
2021/03/19 07:09:19;;;;;;;9.73;8.33;;;;;;;2.51;69.60;99407.06;5158247;22;20193;-79
2021/03/19 07:13:36;;;;;;;11.80;8.40;;;;;;;3.03;68.67;99395.81;5033658;23;20235;-78
2021/03/19 07:17:29;;;;;;;11.57;8.17;;;;;;;3.06;66.67;99358.41;5027353;23;20223;-82
2021/03/19 07:20:49;;;;;;;9.70;8.33;;;;;;;3.66;65.83;99405.19;4977653;28;20227;-81
2021/03/19 07:24:19;;;;;;;8.97;7.80;;;;;;;3.96;65.29;99412.19;5026709;23;20253;-78
2021/03/19 07:28:17;;;;;;;11.07;7.80;;;;;;;4.11;64.84;99405.03;5084525;23;21133;-80
2021/03/19 07:32:07;;;;;;;10.37;8.07;;;;;;;4.12;63.00;99397.91;4967487;29;20223;-80
2021/03/19 07:35:28;;;;;;;12.03;8.80;;;;;;;4.47;63.32;99413.06;4951571;29;20264;-79
2021/03/19 07:39:08;;;;;;;10.93;8.23;;;;;;;4.85;61.55;99414.50;4973485;28;20613;-79
2021/03/19 07:42:43;;;;;;;10.23;8.23;;;;;;;5.21;61.09;99411.81;4991645;23;20229;-79
2021/03/19 07:46:16;;;;;;;8.43;7.20;;;;;;;5.38;61.07;99414.19;5027785;23;20222;-79
2021/03/19 07:49:54;;;;;;;8.37;7.33;;;;;;;5.70;59.78;99416.28;4974761;29;20251;-79
2021/03/19 07:53:14;;;;;;;8.83;7.93;;;;;;;5.60;60.97;99418.47;4974635;28;20227;-79
2021/03/19 07:56:46;;;;;;;10.83;7.87;;;;;;;6.08;60.56;99414.94;5025398;23;20657;-79
2021/03/19 07:59:46;;;;;;;8.80;7.90;;;;;;;5.84;59.26;99414.53;5023577;23;20234;-79
2021/03/19 08:03:17;;;;;;;8.53;7.50;;;;;;;5.89;57.74;99415.63;5031637;28;20226;-79
2021/03/19 08:06:46;;;;;;;8.70;7.80;;;;;;;6.12;57.69;99394.09;5026291;22;20301;-79
2021/03/19 08:10:01;;;;;;;8.37;7.57;;;;;;;6.71;56.30;99390.88;5126618;22;20221;-79
2021/03/19 08:13:06;;;;;;;8.00;7.20;;;;;;;6.55;54.29;99406.16;4990032;22;20239;-79
2021/03/19 08:16:01;;;;;;;9.47;7.77;;;;;;;6.54;54.53;99409.00;5080140;22;20235;-79
2021/03/19 08:19:27;;;;;;;8.57;7.67;;;;;;;6.13;55.32;99409.03;5018158;28;20245;-79
2021/03/19 08:22:54;;;;;;;10.47;7.20;;;;;;;5.56;55.22;99394.09;5031901;28;20275;-79
2021/03/19 08:26:07;;;;;;;9.43;6.63;;;;;;;5.63;56.05;99404.78;5029318;28;20179;-79
2021/03/19 08:30:19;;;;;;;8.00;7.20;;;;;;;5.68;55.94;99405.03;5033325;28;20234;-79
2021/03/19 08:34:06;;;;;;;8.30;7.40;;;;;;;6.24;54.41;99403.16;5033215;23;20226;-80
2021/03/19 08:37:05;;;;;;;7.60;6.50;;;;;;;6.08;54.67;99412.28;5035726;28;20246;-79
2021/03/19 08:41:06;;;;;;;7.20;6.27;;;;;;;5.94;54.11;99405.25;5045279;22;20226;-79
2021/03/19 08:44:06;;;;;;;7.30;6.53;;;;;;;5.64;55.46;99401.97;5150034;23;20233;-80
2021/03/19 08:47:29;;;;;;;7.67;6.87;;;;;;;5.56;55.23;99364.03;4994941;23;20224;-79
2021/03/19 08:50:49;;;;;;;7.40;6.70;;;;;;;5.55;54.70;99355.25;5015755;23;20238;-79
2021/03/19 08:54:18;;;;;;;7.33;6.63;;;;;;;5.92;54.05;99399.31;5129838;23;20214;-79
2021/03/19 08:57:58;;;;;;;6.03;5.43;;;;;;;5.90;53.25;99404.00;5043381;23;20219;-79
2021/03/19 09:01:35;;;;;;;6.20;5.50;;;;;;;6.13;52.47;99404.53;5041980;23;20222;-78
2021/03/19 09:05:21;;;;;;;6.83;6.03;;;;;;;6.54;53.12;99398.38;5029339;23;20226;-79
2021/03/19 09:12:38;;;;;;;7.10;6.00;;;;;;;7.08;50.79;99404.47;5029079;23;20231;-79
2021/03/19 09:15:55;;;;;;;5.60;5.10;;;;;;;6.85;49.97;99408.53;5017996;28;20262;-79
2021/03/19 09:19:51;;;;;;;6.57;5.87;;;;;;;6.90;49.83;99406.09;5055596;23;20226;-79
2021/03/19 09:23:24;;;;;;;6.67;5.97;;;;;;;7.03;49.38;99406.94;5014373;28;20195;-79
2021/03/19 09:27:25;;;;;;;6.90;6.20;;;;;;;6.88;49.69;99408.94;5038352;23;20244;-79
2021/03/19 09:31:12;;;;;;;7.63;6.83;;;;;;;7.34;48.85;99395.69;4968021;28;20663;-79
2021/03/19 09:34:29;;;;;;;6.40;5.70;;;;;;;7.91;47.98;99395.03;5005704;28;20230;-80
2021/03/19 09:37:41;;;;;;;7.53;6.13;;;;;;;7.70;48.34;99397.13;5117061;23;20232;-79
2021/03/19 09:41:30;;;;;;;7.50;6.70;;;;;;;7.41;47.63;99374.38;5058320;23;20761;-79
2021/03/19 09:44:37;;;;;;;8.63;6.63;;;;;;;7.59;46.68;99366.56;5016710;23;20606;-80
2021/03/19 09:48:07;;;;;;;6.47;5.87;;;;;;;7.56;46.73;99395.50;5040473;23;20234;-80
2021/03/19 09:51:32;;;;;;;6.93;6.07;;;;;;;7.75;47.17;99386.63;5035328;28;20245;-79
2021/03/19 09:54:39;;;;;;;6.63;5.97;;;;;;;7.06;47.77;99369.22;5059743;23;20261;-79
2021/03/19 09:58:47;;;;;;;6.93;6.23;;;;;;;7.47;47.19;99386.84;5051917;23;20230;-79
2021/03/19 10:01:57;;;;;;;7.67;6.63;;;;;;;7.48;47.52;99389.34;5055014;28;20194;-79
2021/03/19 10:06:07;;;;;;;7.33;6.63;;;;;;;7.71;46.27;99388.06;4995989;28;20264;-79
2021/03/19 10:09:05;;;;;;;8.10;7.30;;;;;;;7.80;45.91;99358.31;5040838;23;20233;-80
2021/03/19 10:12:16;;;;;;;8.03;7.23;;;;;;;8.49;45.58;99381.72;5034686;28;20244;-78
2021/03/19 10:15:55;;;;;;;7.90;7.20;;;;;;;6.94;48.03;99349.53;5035015;28;20230;-79
2021/03/19 10:19:43;;;;;;;7.43;6.73;;;;;;;7.47;46.74;99336.22;5041216;23;20219;-80
2021/03/19 10:23:31;;;;;;;7.93;7.13;;;;;;;7.86;47.36;99380.69;5035266;28;20223;-79
2021/03/19 10:27:19;;;;;;;7.70;6.90;;;;;;;8.54;45.33;99386.47;5040096;22;20233;-79
2021/03/19 10:31:00;;;;;;;7.73;6.93;;;;;;;8.75;43.88;99381.63;5115329;23;20222;-79
2021/03/19 10:34:45;;;;;;;6.97;6.30;;;;;;;8.52;44.51;99372.50;4241086;23;20202;-80
2021/03/19 10:37:52;;;;;;;7.70;6.93;;;;;;;8.80;46.14;99383.66;5053495;28;20225;-80
2021/03/19 10:41:47;;;;;;;8.20;7.40;;;;;;;8.17;48.32;99375.47;5053526;28;20226;-80
2021/03/19 10:46:04;;;;;;;7.80;7.00;;;;;;;7.81;49.95;99381.31;5123763;22;20222;-80
2021/03/19 10:49:53;;;;;;;6.93;6.23;;;;;;;7.13;50.65;99381.72;4951366;29;20556;-79
2021/03/19 10:53:31;;;;;;;7.80;6.80;;;;;;;6.60;54.36;99378.94;4938632;23;20680;31
2021/03/19 10:57:05;;;;;;;7.13;6.07;;;;;;;5.84;54.58;99369.34;4943315;29;20232;-80
2021/03/19 11:00:44;;;;;;;7.00;6.07;;;;;;;5.43;56.75;99379.91;4997475;23;20262;-79
2021/03/19 11:04:55;;;;;;;7.30;6.07;;;;;;;4.76;65.41;99397.03;5012573;28;20207;-79
2021/03/19 11:11:36;;;;;;;7.60;6.80;;;;;;;4.77;67.65;99382.75;5046977;23;20216;-80
2021/03/19 11:15:16;;;;;;;8.13;6.87;;;;;;;6.21;63.55;99403.53;5047892;23;20229;-80
2021/03/19 11:18:43;;;;;;;7.70;6.70;;;;;;;6.47;61.68;99339.81;5030765;23;20237;-81
2021/03/19 11:22:31;;;;;;;7.73;6.93;;;;;;;6.95;59.65;99375.13;5022136;28;20314;-82
2021/03/19 11:26:09;;;;;;;7.00;6.30;;;;;;;6.35;61.68;99378.66;5107666;23;20196;-81
2021/03/19 11:29:35;;;;;;;7.40;6.70;;;;;;;5.89;62.98;99381.06;5006850;23;20191;31
2021/03/19 11:32:45;;;;;;;7.33;6.63;;;;;;;5.46;64.99;99352.97;5040782;23;20238;-79
2021/03/19 11:40:12;;;;;;;9.73;8.73;;;;;;;3.54;76.60;99383.63;5200935;22;20234;-80
2021/03/19 11:43:32;;;;;;;10.57;9.47;;;;;;;3.88;76.53;99391.03;5038374;23;20291;-82
2021/03/19 11:47:10;;;;;;;10.10;9.10;;;;;;;4.38;78.33;99380.50;5016441;22;20293;-81
2021/03/19 11:50:27;;;;;;;11.43;9.60;;;;;;;4.84;76.67;99385.50;5033162;23;20257;-82
2021/03/19 11:54:01;;;;;;;9.87;8.87;;;;;;;4.48;78.25;99353.66;5014349;28;20217;-81
2021/03/19 11:57:35;;;;;;;8.33;6.87;;;;;;;4.58;74.78;99356.84;4976534;28;20632;-81
2021/03/19 12:04:28;;;;;;;6.27;5.67;;;;;;;5.29;71.77;99366.50;5001966;23;20203;-82
2021/03/19 12:07:31;;;;;;;7.30;6.33;;;;;;;5.58;74.76;99370.81;5050837;23;20232;-80
2021/03/19 12:10:47;;;;;;;6.50;5.57;;;;;;;5.63;68.79;99376.38;5027825;23;20289;-81
2021/03/19 12:14:35;;;;;;;5.90;5.30;;;;;;;4.88;72.09;99363.69;5045601;23;20714;-80
2021/03/19 12:21:02;;;;;;;6.67;5.77;;;;;;;4.14;73.82;99375.50;4975560;28;20220;-82
2021/03/19 12:23:53;;;;;;;6.80;6.17;;;;;;;4.44;74.34;99358.53;4935177;29;20250;-81
2021/03/19 12:26:38;;;;;;;6.20;5.60;;;;;;;4.42;72.60;99334.03;5219740;23;20178;-80
2021/03/19 12:29:30;;;;;;;6.87;6.03;;;;;;;5.29;71.55;99357.72;5049984;22;20277;-81
2021/03/19 12:32:32;;;;;;;6.70;6.00;;;;;;;6.37;67.54;99343.88;5007359;28;20209;-81
2021/03/19 12:35:41;;;;;;;6.50;5.90;;;;;;;7.06;63.31;99326.59;5035576;28;20233;-82
2021/03/19 12:38:34;;;;;;;6.97;6.30;;;;;;;6.29;65.50;99336.88;5131043;23;20200;-82
2021/03/19 12:42:17;;;;;;;6.90;6.23;;;;;;;5.63;66.86;99343.66;5038387;23;20233;-81
2021/03/19 12:45:02;;;;;;;7.63;6.93;;;;;;;6.02;67.06;99338.59;5030448;28;20231;-81
2021/03/19 12:47:41;;;;;;;7.50;6.80;;;;;;;6.37;66.19;99327.91;5031717;28;20257;-81
2021/03/19 12:50:57;;;;;;;8.37;7.13;;;;;;;5.81;66.23;99333.34;5035842;28;20250;-81
2021/03/19 12:53:42;;;;;;;7.17;6.47;;;;;;;5.65;65.51;99330.97;5036898;28;20210;-81
2021/03/19 12:57:17;;;;;;;7.17;6.50;;;;;;;6.11;63.73;99332.09;5035694;28;20207;-81
2021/03/19 13:00:18;;;;;;;6.77;6.07;;;;;;;6.28;66.18;99327.25;5039475;23;20242;-81
2021/03/19 13:03:41;;;;;;;5.93;5.33;;;;;;;6.21;63.32;99323.75;5027211;28;20230;-80
2021/03/19 13:06:29;;;;;;;3.45;3.20;;;;;;;5.90;62.98;99326.06;4276246;23;22014385;-81
2021/03/19 13:09:23;;;;;;;5.40;4.77;;;;;;;5.68;65.18;99318.16;5032894;23;20234;-81
2021/03/19 13:12:40;;;;;;;5.60;5.10;;;;;;;6.22;63.94;99322.72;5029572;23;20241;-81
2021/03/19 13:15:22;;;;;;;4.50;4.10;;;;;;;6.07;59.08;99279.47;5041735;23;20227;-79
2021/03/19 13:18:09;;;;;;;5.17;4.67;;;;;;;6.54;60.27;99294.56;4994185;23;20227;-81
2021/03/19 13:21:14;;;;;;;4.97;4.50;;;;;;;6.41;59.18;99313.16;4993458;28;20216;-80
2021/03/19 13:24:03;;;;;;;5.47;4.97;;;;;;;7.43;56.44;99303.00;5015846;23;20238;-80
2021/03/19 13:26:47;;;;;;;5.53;5.03;;;;;;;7.86;56.56;99319.34;5004858;23;20211;-82
2021/03/19 13:29:59;;;;;;;5.77;5.17;;;;;;;6.93;58.53;99326.59;5016074;28;20215;-81
2021/03/19 13:33:47;;;;;;;5.77;5.27;;;;;;;5.80;62.72;99325.56;4976853;28;20228;-81
2021/03/19 13:37:27;;;;;;;5.90;5.30;;;;;;;5.06;64.83;99327.91;5116301;23;20214;-82
2021/03/19 13:40:28;;;;;;;5.97;5.37;;;;;;;4.51;67.97;99334.72;5037419;28;20198;-81
2021/03/19 13:43:58;;;;;;;5.10;4.60;;;;;;;3.69;75.83;99325.34;5060706;23;20226;-81
2021/03/19 13:47:30;;;;;;;6.00;5.40;;;;;;;3.57;73.95;99324.97;5019935;28;20206;-82
2021/03/19 13:50:20;;;;;;;6.77;5.93;;;;;;;3.69;76.50;99338.59;5041649;23;20233;-81
2021/03/19 13:53:10;;;;;;;6.17;5.10;;;;;;;3.76;71.03;99328.91;5033913;23;20302;-81
2021/03/19 13:56:22;;;;;;;5.50;5.00;;;;;;;3.38;71.67;99326.34;5031928;23;20234;-81
2021/03/19 13:59:08;;;;;;;11.87;10.10;;;;;;;2.78;79.52;99336.97;5058813;23;20230;-91
2021/03/19 14:01:36;;;;;;;12.27;10.93;;;;;;;2.57;81.99;99355.28;5008390;28;20215;-94
2021/03/19 14:04:10;;;;;;;12.33;10.17;;;;;;;2.31;81.18;99342.38;4982135;28;20223;-92
2021/03/19 14:06:39;;;;;;;13.10;10.40;;;;;;;2.11;80.99;99325.28;4981657;28;20231;-95
2021/03/19 14:09:10;;;;;;;12.00;10.53;;;;;;;1.88;82.88;99325.25;4991875;28;20293;-94
2021/03/19 14:11:46;;;;;;;14.67;12.10;;;;;;;1.97;83.32;99341.88;5016929;28;20222;-92
2021/03/19 14:14:24;;;;;;;15.47;13.13;;;;;;;1.96;84.59;99364.03;5000346;28;20226;-92
2021/03/19 14:17:01;;;;;;;15.00;12.47;;;;;;;1.95;84.34;99363.22;5020662;28;20567;-87
2021/03/19 14:19:42;;;;;;;24.40;14.93;;;;;;;1.91;84.87;99390.97;5106478;23;20237;-82
2021/03/19 14:22:30;;;;;;;14.10;10.17;;;;;;;1.66;85.56;99394.66;5211056;23;20645;-80
2021/03/19 14:26:11;;;;;;;10.93;9.13;;;;;;;1.41;85.25;99378.03;5052476;23;20226;-80
2021/03/19 14:29:35;;;;;;;10.77;8.57;;;;;;;1.42;86.87;99407.88;5046849;23;20512;-81
2021/03/19 14:33:12;;;;;;;10.70;8.80;;;;;;;1.33;87.42;99412.34;5016911;23;20231;31
2021/03/19 14:37:00;;;;;;;9.47;8.47;;;;;;;1.26;88.45;99421.94;5006905;22;20364;-80
2021/03/19 14:40:10;;;;;;;8.10;7.20;;;;;;;1.26;88.71;99422.72;5049678;23;20226;-81
2021/03/19 14:43:34;;;;;;;7.30;6.23;;;;;;;1.45;88.43;99423.38;5080690;22;20250;-78
2021/03/19 14:50:24;;;;;;;8.70;6.80;;;;;;;2.60;84.31;99405.19;4976082;29;20218;-80
2021/03/19 14:57:49;;;;;;;7.67;6.87;;;;;;;2.19;83.92;99417.78;5043530;23;20273;-80
2021/03/19 15:00:57;;;;;;;7.30;6.43;;;;;;;2.08;84.07;99412.88;5036101;23;20225;-79
2021/03/19 15:04:08;;;;;;;7.27;6.00;;;;;;;1.82;84.43;99415.72;5041287;23;20290;-80
2021/03/19 15:07:57;;;;;;;8.43;7.10;;;;;;;1.40;86.35;99363.16;5040446;23;20277;-80
2021/03/19 15:11:09;;;;;;;8.57;7.37;;;;;;;1.88;87.06;99415.06;5052042;23;20235;-81
2021/03/19 15:14:26;;;;;;;11.60;9.80;;;;;;;1.90;86.70;99410.44;4994941;28;20242;-81
2021/03/19 15:21:26;;;;;;;9.27;6.50;;;;;;;2.18;85.91;99410.84;4963823;28;20243;-79
2021/03/19 15:24:42;;;;;;;6.97;5.57;;;;;;;2.47;84.61;99405.72;4992708;28;20228;-79
2021/03/19 15:27:46;;;;;;;6.30;4.77;;;;;;;2.24;83.93;99367.84;5028587;22;20249;-80
2021/03/19 15:35:19;;;;;;;5.97;4.37;;;;;;;2.19;83.25;99417.78;4994989;28;20235;-79
2021/03/19 15:38:36;;;;;;;5.13;4.50;;;;;;;2.30;83.77;99412.09;5002427;23;20200;-80
2021/03/19 15:42:26;;;;;;;4.43;4.00;;;;;;;2.03;83.39;99389.59;5041778;23;20230;-79